Koyo Maru — JI3710 — position and weather

sailwx.info

Track history (hours):
 
Tides and Currents Weather Stations Pressure Air Temp Water Temp Dewpoint Dewpoint Depression Visibility Wind Speed Wind Dir Waves Ship Positions

Koyo Maru

Last reported at 2016-Sep-27 10:28 UTC. Time now 2016-Sep-29 13:39 UTC.
Position N 34°08' E 134°60'.

Length 125 m; draft 6 m.

Type: Cargo ship. MMSI: 431401953.

Date/timePositionNaut miles runAvg speedWind from/ knotsBaromVisibWave heightAir tempDewpointWater temp
2016-Sep-27 10:28N 34°08' E 134°60'35 3.5
2016-Sep-27 00:30N 34°35' E 135°26'7 1.6
2016-Sep-26 20:23N 34°34' E 135°18'0 0.0
2016-Sep-26 19:29N 34°34' E 135°18'0 0.0
2016-Sep-26 15:23N 34°34' E 135°18'5 2.9
2016-Sep-26 13:34N 34°34' E 135°11'  
2016-Sep-21 09:33N 35°34' E 139°59'0 0.1
2016-Sep-21 08:30N 35°34' E 139°59'0 0.0
2016-Sep-21 03:33N 35°34' E 139°59'0 0.0
2016-Sep-21 02:30N 35°34' E 139°59'0 0.0
2016-Sep-20 17:32N 35°34' E 139°59'0 0.0
2016-Sep-20 14:30N 35°34' E 139°59'0 0.0
2016-Sep-20 13:33N 35°34' E 139°59'0 0.0
2016-Sep-20 10:23N 35°34' E 139°59'0 0.1
2016-Sep-20 08:29N 35°34' E 139°59'0 0.0
2016-Sep-20 07:33N 35°34' E 139°59'1 0.7
2016-Sep-20 06:33N 35°34' E 140°00'5 1.3
2016-Sep-20 02:33N 35°37' E 140°05'0 0.0
2016-Sep-19 23:33N 35°37' E 140°05'40 9.9
2016-Sep-19 19:33N 35°02' E 139°42'249 8.9
2016-Sep-18 15:33N 34°05' E 134°48'34 1.2
2016-Sep-17 10:33N 34°36' E 135°05'  
Track history (hours):
 
Tides and Currents Weather Stations Pressure Air Temp Water Temp Dewpoint Dewpoint Depression Visibility Wind Speed Wind Dir Waves Ship Positions

Koyo Maru

Last reported at 2016-Sep-27 10:28 UTC. Time now 2016-Sep-29 13:39 UTC.
Position N 34°08' E 134°60'.

Length 125 m; draft 6 m.

Type: Cargo ship. MMSI: 431401953.

Date/timePositionNaut miles runAvg speedWind from/ knotsBaromVisibWave heightAir tempDewpointWater temp
2016-Sep-27 10:28N 34°08' E 134°60'35 3.5
2016-Sep-27 00:30N 34°35' E 135°26'7 1.6
2016-Sep-26 20:23N 34°34' E 135°18'0 0.0
2016-Sep-26 19:29N 34°34' E 135°18'0 0.0
2016-Sep-26 15:23N 34°34' E 135°18'5 2.9
2016-Sep-26 13:34N 34°34' E 135°11'  
2016-Sep-21 09:33N 35°34' E 139°59'0 0.1
2016-Sep-21 08:30N 35°34' E 139°59'0 0.0
2016-Sep-21 03:33N 35°34' E 139°59'0 0.0
2016-Sep-21 02:30N 35°34' E 139°59'0 0.0
2016-Sep-20 17:32N 35°34' E 139°59'0 0.0
2016-Sep-20 14:30N 35°34' E 139°59'0 0.0
2016-Sep-20 13:33N 35°34' E 139°59'0 0.0
2016-Sep-20 10:23N 35°34' E 139°59'0 0.1
2016-Sep-20 08:29N 35°34' E 139°59'0 0.0
2016-Sep-20 07:33N 35°34' E 139°59'1 0.7
2016-Sep-20 06:33N 35°34' E 140°00'5 1.3
2016-Sep-20 02:33N 35°37' E 140°05'0 0.0
2016-Sep-19 23:33N 35°37' E 140°05'40 9.9
2016-Sep-19 19:33N 35°02' E 139°42'249 8.9
2016-Sep-18 15:33N 34°05' E 134°48'34 1.2
2016-Sep-17 10:33N 34°36' E 135°05'  

Dump ship's entire track history